Time;durP1;ratioP1;P1;durP2;ratioP2;P2;SDS_P1;SDS_P2;PMS_P1;PMS_P2;Temp;Humidity;BMP_temperature;BMP_pressure;BME280_temperature;BME280_humidity;BME280_pressure;Samples;Min_cycle;Max_cycle;Signal;HPM_P1;HPM_P2
2022/05/04 00:01:45;;;;;;;23.80;14.27;;;12.60;99.90;;;;;;4771194;30;20032;-89
2022/05/04 00:04:12;;;;;;;25.60;14.10;;;12.50;99.90;;;;;;4771042;30;20039;-89
2022/05/04 00:06:38;;;;;;;20.92;13.75;;;12.50;99.90;;;;;;4771160;30;20032;-89
2022/05/04 00:09:05;;;;;;;23.85;14.93;;;12.50;99.90;;;;;;4771021;30;20123;-89
2022/05/04 00:11:32;;;;;;;22.00;14.07;;;12.50;99.90;;;;;;4756719;30;20032;-90
2022/05/04 00:13:58;;;;;;;24.80;14.25;;;12.30;99.90;;;;;;4759343;30;20036;-90
2022/05/04 00:16:25;;;;;;;21.80;13.52;;;12.20;99.90;;;;;;4768350;30;20040;-89
2022/05/04 00:18:53;;;;;;;22.33;13.70;;;12.20;99.90;;;;;;4771300;30;20032;-89
2022/05/04 00:21:20;;;;;;;21.67;14.18;;;12.20;99.90;;;;;;4741695;30;20060;-89
2022/05/04 00:23:47;;;;;;;23.52;14.65;;;12.20;99.90;;;;;;4770537;30;20036;-89
2022/05/04 00:26:13;;;;;;;29.08;16.35;;;12.30;99.90;;;;;;4769654;30;20040;-89
2022/05/04 00:28:40;;;;;;;25.13;15.25;;;12.30;99.90;;;;;;4769773;30;20182;-89
2022/05/04 00:31:07;;;;;;;28.33;13.95;;;12.20;99.90;;;;;;4769655;30;20082;-89
2022/05/04 00:33:33;;;;;;;22.88;13.98;;;12.30;99.90;;;;;;4770874;30;20052;-88
2022/05/04 00:36:00;;;;;;;19.98;13.48;;;12.30;99.90;;;;;;4769607;30;20396;-89
2022/05/04 00:38:27;;;;;;;19.30;12.77;;;12.20;99.90;;;;;;4769695;30;20052;-89
2022/05/04 00:40:53;;;;;;;18.00;11.93;;;12.20;99.90;;;;;;4769995;30;20090;-89
2022/05/04 00:43:25;;;;;;;16.20;11.48;;;12.30;99.90;;;;;;4741235;30;20028;-89
2022/05/04 00:45:52;;;;;;;19.52;12.68;;;12.30;99.90;;;;;;4770248;30;20047;-89
2022/05/04 00:48:19;;;;;;;19.70;12.18;;;12.20;99.90;;;;;;4770080;30;20032;-89
2022/05/04 00:50:49;;;;;;;21.13;13.30;;;12.10;99.90;;;;;;4770203;30;20043;-89
2022/05/04 00:53:21;;;;;;;20.35;12.90;;;12.00;99.90;;;;;;4770520;30;20234;-89
2022/05/04 00:55:48;;;;;;;19.45;13.25;;;12.00;99.90;;;;;;4768771;30;20052;-89
2022/05/04 01:01:03;;;;;;;22.05;13.20;;;11.90;99.90;;;;;;4769214;30;20403;-89
2022/05/04 01:03:29;;;;;;;20.67;12.93;;;11.90;99.90;;;;;;4768811;30;20036;-89
2022/05/04 01:05:56;;;;;;;20.75;13.82;;;11.80;99.90;;;;;;4769414;30;20025;-89
2022/05/04 01:08:24;;;;;;;20.83;14.15;;;11.70;99.90;;;;;;4770078;30;20706;-89
2022/05/04 01:10:51;;;;;;;21.20;14.27;;;11.60;99.90;;;;;;4769601;30;20070;-88
2022/05/04 01:13:22;;;;;;;22.25;14.25;;;11.70;99.90;;;;;;4769744;30;20495;-89
2022/05/04 01:15:49;;;;;;;19.88;13.48;;;11.70;99.90;;;;;;4769646;30;20130;-89
2022/05/04 01:18:17;;;;;;;21.80;13.25;;;11.70;99.90;;;;;;4769711;30;20031;-89
2022/05/04 01:20:44;;;;;;;24.40;13.38;;;11.70;99.90;;;;;;4768906;30;20033;-88
2022/05/04 01:23:11;;;;;;;20.95;13.13;;;11.90;99.90;;;;;;4771331;30;20032;-90
2022/05/04 01:25:38;;;;;;;21.75;13.65;;;11.80;99.90;;;;;;4743459;30;20040;-89
2022/05/04 01:28:05;;;;;;;22.52;14.38;;;11.70;99.90;;;;;;4773886;30;20115;-89
2022/05/04 01:30:32;;;;;;;25.00;15.13;;;11.70;99.90;;;;;;4772645;30;20040;-89
2022/05/04 01:32:59;;;;;;;25.08;14.98;;;11.60;99.90;;;;;;4773665;30;20032;-89
2022/05/04 01:35:26;;;;;;;28.67;17.23;;;11.60;99.90;;;;;;4773143;30;20036;-89
2022/05/04 01:37:53;;;;;;;31.50;20.63;;;11.50;99.90;;;;;;4780298;30;20518;-89
2022/05/04 01:40:20;;;;;;;53.35;20.75;;;11.60;99.90;;;;;;4786965;30;20255;-89
2022/05/04 01:42:46;;;;;;;30.35;18.20;;;11.40;99.90;;;;;;4758483;30;20036;-90
2022/05/04 01:45:13;;;;;;;28.95;17.23;;;11.40;99.90;;;;;;4787369;30;20032;-88
2022/05/04 01:47:40;;;;;;;31.27;17.92;;;11.50;99.90;;;;;;4787224;30;20032;-89
2022/05/04 01:50:07;;;;;;;29.90;16.92;;;11.50;99.90;;;;;;4787298;30;20036;-89
2022/05/04 01:52:34;;;;;;;25.35;16.08;;;11.50;99.90;;;;;;4787770;29;20052;-89
2022/05/04 01:55:03;;;;;;;29.42;17.45;;;11.50;99.90;;;;;;4788818;30;20044;-89
2022/05/04 01:57:30;;;;;;;29.50;17.77;;;11.40;99.90;;;;;;4789081;30;20036;-89
2022/05/04 01:59:57;;;;;;;31.92;18.60;;;11.30;99.90;;;;;;4787464;30;20483;-89
2022/05/04 02:02:27;;;;;;;27.38;16.85;;;11.30;99.90;;;;;;4787290;30;20036;-90
2022/05/04 02:04:54;;;;;;;29.20;17.42;;;11.40;99.90;;;;;;4787250;30;20099;-89
2022/05/04 02:07:21;;;;;;;31.90;18.23;;;11.40;99.90;;;;;;4787578;30;20036;-89
2022/05/04 02:09:48;;;;;;;28.63;16.50;;;11.40;99.90;;;;;;4788204;30;20036;-89
2022/05/04 02:12:14;;;;;;;27.05;15.20;;;11.40;99.90;;;;;;4787919;30;20032;-89
2022/05/04 02:14:41;;;;;;;26.98;15.73;;;11.30;99.90;;;;;;4787536;29;20111;-89
2022/05/04 02:17:08;;;;;;;24.80;15.30;;;11.10;99.90;;;;;;4787174;30;20074;-89
2022/05/04 02:19:35;;;;;;;26.58;15.35;;;11.10;99.90;;;;;;4786891;30;20036;-89
2022/05/04 02:22:02;;;;;;;24.48;15.73;;;11.00;99.90;;;;;;4786873;30;20047;-89
2022/05/04 02:24:29;;;;;;;23.77;15.40;;;10.90;99.90;;;;;;4786067;29;20028;-89
2022/05/04 02:26:55;;;;;;;22.20;14.63;;;10.90;99.90;;;;;;4786664;30;20037;-89
2022/05/04 02:29:22;;;;;;;21.95;14.82;;;11.00;99.90;;;;;;4786642;30;20036;-89
2022/05/04 02:31:49;;;;;;;21.75;14.15;;;11.00;99.90;;;;;;4771740;30;20380;-89
2022/05/04 02:34:16;;;;;;;20.17;13.60;;;11.00;99.90;;;;;;4786932;30;20036;-89
2022/05/04 02:39:27;;;;;;;23.13;14.20;;;10.90;99.90;;;;;;4773832;30;20036;-89
2022/05/04 02:41:55;;;;;;;22.70;13.80;;;10.90;99.90;;;;;;4790414;30;20036;-89
2022/05/04 02:44:21;;;;;;;24.08;14.25;;;10.80;99.90;;;;;;4789521;30;20071;-89
2022/05/04 02:46:49;;;;;;;23.38;15.25;;;10.80;99.90;;;;;;4789717;29;20119;-89
2022/05/04 02:49:17;;;;;;;25.92;15.25;;;10.70;99.90;;;;;;4789426;30;20040;-88
2022/05/04 02:51:45;;;;;;;25.88;15.93;;;10.50;99.90;;;;;;4789203;30;20224;-89
2022/05/04 02:54:11;;;;;;;27.65;16.17;;;10.50;99.90;;;;;;4789504;30;20032;-88
2022/05/04 02:56:39;;;;;;;29.55;16.42;;;10.60;99.90;;;;;;4790042;29;20044;-89
2022/05/04 02:59:05;;;;;;;29.17;16.55;;;10.60;99.90;;;;;;4790101;30;20027;-89
2022/05/04 03:04:17;;;;;;;24.40;14.18;;;10.50;99.90;;;;;;4773525;30;20046;-89
2022/05/04 03:06:47;;;;;;;25.90;14.90;;;10.60;99.90;;;;;;4788548;30;20123;-89
2022/05/04 03:09:13;;;;;;;25.33;15.40;;;10.70;99.90;;;;;;4788868;29;20036;-89
2022/05/04 03:11:56;;;;;;;24.80;14.25;;;10.70;99.90;;;;;;4789782;30;20055;-89
2022/05/04 03:14:28;;;;;;;31.10;15.48;;;10.70;99.90;;;;;;4791262;30;20040;-89
2022/05/04 03:16:55;;;;;;;21.15;13.70;;;10.60;99.90;;;;;;4761528;30;20071;-90
2022/05/04 03:19:24;;;;;;;25.13;15.15;;;10.50;99.90;;;;;;4786873;29;20047;-87
2022/05/04 03:21:51;;;;;;;25.77;15.05;;;10.50;99.90;;;;;;4786703;30;20123;-87
2022/05/04 03:24:19;;;;;;;23.60;14.93;;;10.40;99.90;;;;;;4786959;30;20405;-88
2022/05/04 03:26:46;;;;;;;25.08;15.15;;;10.40;99.90;;;;;;4786740;30;20039;-89
2022/05/04 03:29:13;;;;;;;23.98;15.20;;;10.50;99.90;;;;;;4786797;30;20036;-87
2022/05/04 03:31:40;;;;;;;23.63;14.48;;;10.60;99.90;;;;;;4786507;29;20035;-87
2022/05/04 03:34:07;;;;;;;25.35;14.40;;;10.60;99.90;;;;;;4786528;30;20498;-88
2022/05/04 03:36:37;;;;;;;23.17;13.75;;;10.60;99.90;;;;;;4786234;30;20048;-88
2022/05/04 03:39:05;;;;;;;22.05;14.27;;;10.60;99.90;;;;;;4771871;30;20046;-88
2022/05/04 03:41:32;;;;;;;25.17;14.25;;;10.50;99.90;;;;;;4786823;30;20032;-88
2022/05/04 03:43:59;;;;;;;20.52;13.88;;;10.40;99.90;;;;;;4786470;29;20059;-89
2022/05/04 03:46:27;;;;;;;18.88;13.75;;;10.40;99.90;;;;;;4774818;30;20027;-90
2022/05/04 03:48:58;;;;;;;22.58;14.40;;;10.40;99.90;;;;;;4808210;30;20040;-88
2022/05/04 03:51:25;;;;;;;22.20;14.95;;;10.30;99.90;;;;;;4796220;29;20063;-88
2022/05/04 03:53:53;;;;;;;24.70;14.50;;;10.40;99.90;;;;;;4794711;30;20038;-88
2022/05/04 03:56:21;;;;;;;23.27;14.57;;;10.40;99.90;;;;;;4797775;30;20043;-88
2022/05/04 03:58:48;;;;;;;20.27;12.80;;;10.50;99.90;;;;;;4797759;30;20486;-89
2022/05/04 04:01:14;;;;;;;19.73;13.32;;;10.40;99.90;;;;;;4797053;30;20200;-89
2022/05/04 04:03:41;;;;;;;19.38;13.02;;;10.30;99.90;;;;;;4791610;30;20062;-88
2022/05/04 04:06:08;;;;;;;22.63;14.27;;;10.40;99.90;;;;;;4789405;29;20089;-88
2022/05/04 04:08:35;;;;;;;20.67;13.70;;;10.40;99.90;;;;;;4788429;30;20031;-89
2022/05/04 04:11:01;;;;;;;20.83;13.63;;;10.40;99.90;;;;;;4760318;30;20142;-89
2022/05/04 04:13:32;;;;;;;20.52;14.20;;;10.50;99.90;;;;;;4788798;30;20063;-89
2022/05/04 04:15:59;;;;;;;23.13;13.95;;;10.60;99.90;;;;;;4791269;30;20047;-90
2022/05/04 04:18:27;;;;;;;23.20;14.10;;;10.60;99.90;;;;;;4789279;29;20581;-89
2022/05/04 04:23:39;;;;;;;31.17;14.75;;;10.80;99.90;;;;;;4772019;30;20031;-89
2022/05/04 04:26:09;;;;;;;41.45;15.27;;;11.00;99.90;;;;;;4786070;30;20051;-89
2022/05/04 04:28:40;;;;;;;52.88;16.60;;;11.10;99.90;;;;;;4785633;29;20039;-89
2022/05/04 04:31:11;;;;;;;89.07;18.00;;;11.10;99.90;;;;;;4786587;30;20044;-88
2022/05/04 04:33:37;;;;;;;42.42;17.80;;;11.10;99.90;;;;;;4786472;30;20039;-88
2022/05/04 04:36:08;;;;;;;72.20;17.48;;;11.20;99.90;;;;;;4785675;30;20077;-89
2022/05/04 04:38:35;;;;;;;43.38;18.10;;;11.30;99.90;;;;;;4767656;30;20091;-89
2022/05/04 04:41:02;;;;;;;27.45;15.60;;;11.40;99.90;;;;;;4767591;30;20066;-89
2022/05/04 04:43:28;;;;;;;33.33;17.33;;;11.50;99.90;;;;;;4768538;30;20078;-89
2022/05/04 04:45:55;;;;;;;33.67;17.08;;;11.80;99.90;;;;;;4767551;30;20047;-89
2022/05/04 04:48:22;;;;;;;30.67;17.05;;;12.10;99.90;;;;;;4768506;30;20067;-89
2022/05/04 04:50:49;;;;;;;31.15;15.30;;;12.30;99.90;;;;;;4767497;30;20036;-89
2022/05/04 04:53:19;;;;;;;30.08;15.95;;;12.80;99.90;;;;;;4767406;30;20036;-88
2022/05/04 04:55:46;;;;;;;28.90;15.93;;;13.40;99.90;;;;;;4767387;30;20074;-89
2022/05/04 04:58:14;;;;;;;21.65;13.88;;;13.80;99.90;;;;;;4767523;30;20028;-89
2022/05/04 05:00:41;;;;;;;22.73;13.30;;;14.40;99.90;;;;;;4767431;30;20102;-89
2022/05/04 05:03:09;;;;;;;19.60;13.38;;;14.80;99.90;;;;;;4766846;30;20111;-89
2022/05/04 05:05:40;;;;;;;22.95;13.68;;;15.20;99.90;;;;;;4768362;30;20414;-90
2022/05/04 05:08:08;;;;;;;24.10;14.55;;;15.50;99.90;;;;;;4767511;30;20040;-89
2022/05/04 05:10:35;;;;;;;22.65;14.68;;;15.60;99.90;;;;;;4767125;30;20115;-87
2022/05/04 05:13:02;;;;;;;17.92;11.95;;;16.00;99.90;;;;;;4767393;30;20072;-90
2022/05/04 05:18:13;;;;;;;22.35;13.00;;;16.70;99.90;;;;;;4766210;30;20052;-89
2022/05/04 05:20:40;;;;;;;19.83;12.68;;;17.10;99.90;;;;;;4766268;30;20115;-91
2022/05/04 05:23:09;;;;;;;13.73;9.90;;;17.40;99.90;;;;;;4766135;30;20500;-89
2022/05/04 05:25:36;;;;;;;15.48;10.55;;;17.80;99.90;;;;;;4751708;30;20028;-90
2022/05/04 05:28:06;;;;;;;16.15;10.18;;;18.00;99.90;;;;;;4766231;30;20044;-91
2022/05/04 05:30:33;;;;;;;15.13;10.80;;;18.40;99.90;;;;;;4766060;30;20116;-90
2022/05/04 05:32:59;;;;;;;12.38;10.18;;;18.70;99.90;;;;;;4766006;30;20028;-90
2022/05/04 05:35:26;;;;;;;13.90;11.10;;;19.10;99.90;;;;;;4766540;30;20036;-91
2022/05/04 05:37:53;;;;;;;14.80;9.93;;;19.00;99.90;;;;;;4786462;29;20540;-91
2022/05/04 05:40:19;;;;;;;12.68;9.50;;;19.60;99.90;;;;;;4770516;30;20074;-91
2022/05/04 05:42:49;;;;;;;13.20;10.98;;;19.70;99.90;;;;;;4785588;30;20127;-91
2022/05/04 05:45:16;;;;;;;14.73;8.95;;;20.10;99.90;;;;;;4800086;29;20624;-91
2022/05/04 05:47:42;;;;;;;7.30;6.40;;;20.30;99.90;;;;;;4798043;29;20035;-92
2022/05/04 05:50:11;;;;;;;9.43;6.38;;;21.00;99.90;;;;;;4768845;30;20410;-89
2022/05/04 05:52:38;;;;;;;9.52;8.07;;;20.30;99.90;;;;;;4798872;29;20036;-91
2022/05/04 05:55:08;;;;;;;5.68;4.75;;;20.30;99.90;;;;;;4769625;30;20035;-91
2022/05/04 05:57:39;;;;;;;6.22;4.97;;;20.20;99.90;;;;;;4768828;30;20505;-91
2022/05/04 06:00:07;;;;;;;7.45;4.90;;;20.40;99.90;;;;;;4768588;30;20070;-92
2022/05/04 06:02:39;;;;;;;5.55;4.95;;;20.80;99.90;;;;;;4769813;30;20506;-91
2022/05/04 06:05:06;;;;;;;4.40;3.63;;;19.80;99.90;;;;;;4799602;29;20055;-91
2022/05/04 06:07:33;;;;;;;5.05;4.03;;;21.30;99.90;;;;;;4769876;30;20105;-92
2022/05/04 06:10:00;;;;;;;5.60;5.07;;;21.20;99.90;;;;;;4799592;29;20414;-91
2022/05/04 06:12:30;;;;;;;3.88;3.33;;;21.30;99.90;;;;;;4773638;29;20427;-92
2022/05/04 06:14:57;;;;;;;3.80;3.40;;;21.90;99.90;;;;;;4800985;29;20040;-92
2022/05/04 06:17:24;;;;;;;4.18;3.00;;;21.90;99.90;;;;;;4807276;29;20038;-91
2022/05/04 06:19:50;;;;;;;2.67;2.40;;;22.50;99.90;;;;;;4790853;30;20039;-92
2022/05/04 06:22:17;;;;;;;2.53;2.30;;;22.30;99.90;;;;;;4791024;30;20470;-91
2022/05/04 06:24:45;;;;;;;3.00;1.90;;;22.50;99.90;;;;;;4820680;29;20027;-92
2022/05/04 06:27:12;;;;;;;4.45;2.85;;;22.60;99.90;;;;;;4820630;29;20050;-92
2022/05/04 06:35:09;;;;;;;3.60;2.38;;;22.40;99.90;;;;;;4805408;29;20122;-92
2022/05/04 06:37:36;;;;;;;2.40;2.20;;;22.10;99.90;;;;;;4820394;29;20051;-92
2022/05/04 06:40:03;;;;;;;2.55;2.08;;;22.70;99.90;;;;;;4820715;29;20438;-93
2022/05/04 06:42:30;;;;;;;4.60;3.22;;;23.20;99.90;;;;;;4790305;30;20036;-91
2022/05/04 06:44:57;;;;;;;3.42;2.58;;;22.00;99.90;;;;;;4815182;29;20081;-92
2022/05/04 06:47:24;;;;;;;2.40;2.20;;;23.20;99.90;;;;;;4772442;30;20032;-93
2022/05/04 06:49:51;;;;;;;4.13;3.00;;;23.80;99.90;;;;;;4772596;30;20162;-92
2022/05/04 06:52:18;;;;;;;3.40;3.08;;;24.00;99.90;;;;;;4772655;30;20036;-91
2022/05/04 06:54:44;;;;;;;5.80;3.42;;;22.30;99.90;;;;;;4772631;30;20039;-90
2022/05/04 06:57:11;;;;;;;2.97;2.78;;;21.00;99.90;;;;;;4772254;30;20040;-90
2022/05/04 06:59:38;;;;;;;3.33;2.90;;;20.50;99.90;;;;;;4772521;30;20064;-90
2022/05/04 07:02:05;;;;;;;4.35;3.88;;;21.60;99.90;;;;;;4772141;30;20027;-91
2022/05/04 07:04:31;;;;;;;3.83;3.47;;;21.80;99.90;;;;;;4771988;30;20066;-91
2022/05/04 07:06:58;;;;;;;4.70;3.10;;;20.70;99.90;;;;;;4772059;30;20105;-91
2022/05/04 07:09:25;;;;;;;4.82;3.42;;;21.50;99.90;;;;;;4772229;30;20038;-90
2022/05/04 07:11:52;;;;;;;6.90;3.35;;;22.00;99.90;;;;;;4772157;30;20036;-91
2022/05/04 07:14:19;;;;;;;4.20;2.97;;;22.70;99.90;;;;;;4788986;29;20028;-91
2022/05/04 07:16:46;;;;;;;3.47;2.80;;;22.80;99.90;;;;;;4819905;29;20055;-91
2022/05/04 07:19:15;;;;;;;5.50;3.22;;;23.50;99.90;;;;;;4819908;29;20035;-91
2022/05/04 07:21:43;;;;;;;4.20;2.97;;;22.80;99.90;;;;;;4819755;29;20027;-90
2022/05/04 07:24:11;;;;;;;5.20;3.72;;;23.00;99.90;;;;;;4819920;29;20039;-91
2022/05/04 07:26:40;;;;;;;4.03;3.28;;;22.20;99.90;;;;;;4819492;29;20070;-92
2022/05/04 07:29:08;;;;;;;5.60;3.03;;;21.80;99.90;;;;;;4819490;29;20039;-90
2022/05/04 07:31:35;;;;;;;3.65;3.20;;;21.40;99.90;;;;;;4819582;29;20035;-90
2022/05/04 07:34:03;;;;;;;6.30;3.75;;;23.00;99.90;;;;;;4804732;29;20031;-91
2022/05/04 07:36:30;;;;;;;8.32;3.53;;;21.80;99.90;;;;;;4820480;29;20031;-91
2022/05/04 07:38:57;;;;;;;3.83;3.53;;;20.50;99.90;;;;;;4789494;29;20146;-92
2022/05/04 07:42:24;;;;;;;5.07;3.30;;;19.70;99.90;;;;;;4774434;30;20077;-90
2022/05/04 07:44:20;;;;;;;4.68;3.70;;;19.70;99.90;;;;;;4785371;30;20043;-90
2022/05/04 07:46:48;;;;;;;4.63;3.33;;;20.40;99.90;;;;;;4774363;30;20220;-89
2022/05/04 07:49:18;;;;;;;5.78;3.55;;;20.30;99.90;;;;;;4774216;30;20394;-91
2022/05/04 07:51:46;;;;;;;4.53;3.55;;;20.30;99.90;;;;;;4804277;29;20529;-91
2022/05/04 07:54:13;;;;;;;7.93;3.63;;;20.50;99.90;;;;;;4774763;30;20038;-91
2022/05/04 07:56:40;;;;;;;6.38;3.53;;;20.70;99.90;;;;;;4774440;30;20035;-90
2022/05/04 07:59:07;;;;;;;4.80;3.95;;;21.10;99.90;;;;;;4774270;30;20039;-90
2022/05/04 08:04:21;;;;;;;5.47;4.60;;;20.40;99.90;;;;;;4804046;29;20096;-91
2022/05/04 08:06:48;;;;;;;4.57;4.05;;;20.90;99.90;;;;;;4773979;30;20177;-90
2022/05/04 08:09:16;;;;;;;7.43;4.75;;;20.90;99.90;;;;;;4803882;29;20511;-90
2022/05/04 08:11:44;;;;;;;3.75;3.45;;;20.70;99.90;;;;;;4773926;30;20042;-90
2022/05/04 08:14:16;;;;;;;4.43;3.03;;;20.60;99.90;;;;;;4773921;30;20042;-90
2022/05/04 08:16:43;;;;;;;4.65;3.67;;;21.20;99.90;;;;;;4773844;30;20080;-89
2022/05/04 08:19:10;;;;;;;3.47;2.92;;;21.10;99.90;;;;;;4773833;30;20035;-90
2022/05/04 08:21:37;;;;;;;5.45;3.28;;;21.70;99.90;;;;;;4788504;30;20059;-92
2022/05/04 08:24:04;;;;;;;4.43;3.55;;;22.80;99.90;;;;;;4774343;30;20061;-92
2022/05/04 08:26:31;;;;;;;4.45;2.92;;;22.00;99.90;;;;;;4773824;30;20054;-91
2022/05/04 08:28:58;;;;;;;3.97;3.63;;;20.90;99.90;;;;;;4773699;30;20039;-90
2022/05/04 08:31:24;;;;;;;4.25;3.50;;;19.90;99.90;;;;;;4773634;30;20066;-90
2022/05/04 08:33:54;;;;;;;5.18;3.53;;;19.20;99.90;;;;;;4773569;30;20032;-89
2022/05/04 08:36:20;;;;;;;5.25;3.67;;;19.10;99.90;;;;;;4773164;29;20051;-90
2022/05/04 08:38:47;;;;;;;5.03;3.90;;;18.90;99.90;;;;;;4788939;29;20066;-89
2022/05/04 08:41:14;;;;;;;4.22;3.78;;;19.30;99.90;;;;;;4776781;29;20038;-89
2022/05/04 08:43:44;;;;;;;3.38;3.08;;;19.60;99.90;;;;;;4792314;29;20482;-91
2022/05/04 08:46:18;;;;;;;4.93;3.58;;;19.60;99.90;;;;;;4822855;29;20051;-89
2022/05/04 08:48:45;;;;;;;;;;;19.60;99.90;;;;;;4805353;29;20117;-89
2022/05/04 08:51:11;;;;;;;4.03;3.60;;;20.00;99.90;;;;;;4798246;29;19909;-90
2022/05/04 08:53:42;;;;;;;3.45;2.72;;;20.70;99.90;;;;;;4842427;29;20042;-89
2022/05/04 08:56:09;;;;;;;3.22;2.63;;;22.00;99.90;;;;;;4843132;29;20030;-91
2022/05/04 08:58:37;;;;;;;2.50;2.30;;;22.80;99.90;;;;;;4806020;29;20069;-90
2022/05/04 09:01:04;;;;;;;3.67;2.25;;;23.50;99.90;;;;;;4826834;29;20039;-88
2022/05/04 09:03:34;;;;;;;3.35;2.00;;;23.50;99.90;;;;;;4767888;30;20115;-89
2022/05/04 09:06:01;;;;;;;2.50;2.30;;;23.60;99.90;;;;;;4773177;30;20050;-89
2022/05/04 09:08:27;;;;;;;3.05;2.42;;;22.70;99.90;;;;;;4803288;29;20039;-88
2022/05/04 09:10:54;;;;;;;3.28;2.05;;;22.30;99.90;;;;;;4773383;30;20118;-89
2022/05/04 09:13:20;;;;;;;2.22;2.13;;;22.80;99.90;;;;;;4803190;29;20047;-90
2022/05/04 09:15:47;;;;;;;3.47;2.25;;;22.50;99.90;;;;;;4802981;29;20036;-87
2022/05/04 09:18:16;;;;;;;2.90;2.55;;;22.70;99.90;;;;;;4803161;29;20042;-86
2022/05/04 09:20:55;;;;;;;2.47;2.28;;;22.50;99.90;;;;;;4773854;30;20039;-84
2022/05/04 09:23:30;;;;;;;2.53;2.20;;;23.00;99.90;;;;;;4802686;29;20446;-85
2022/05/04 09:26:07;;;;;;;2.58;2.38;;;22.90;99.90;;;;;;4802519;29;20166;-85
2022/05/04 09:28:35;;;;;;;3.03;2.42;;;23.20;99.90;;;;;;4802681;29;20084;-84
2022/05/04 09:31:06;;;;;;;3.00;2.47;;;23.50;99.90;;;;;;4802200;29;20038;-83
2022/05/04 09:33:36;;;;;;;3.00;2.70;;;21.20;99.90;;;;;;4802652;29;20035;-84
2022/05/04 09:36:04;;;;;;;5.45;4.00;;;21.10;99.90;;;;;;4772682;30;20371;-84
2022/05/04 09:46:55;;;;;;;3.22;2.58;;;23.00;99.90;;;;;;4772514;30;20070;-85
2022/05/04 09:49:28;;;;;;;2.60;2.40;;;23.20;99.90;;;;;;4774960;30;20058;-83
2022/05/04 09:51:55;;;;;;;2.47;2.25;;;23.50;99.90;;;;;;4806056;29;20127;-84
2022/05/04 09:54:23;;;;;;;3.50;2.10;;;23.10;99.90;;;;;;4776138;29;20031;-86
2022/05/04 09:57:03;;;;;;;2.95;2.40;;;21.80;99.90;;;;;;4776151;30;20478;-83
2022/05/04 09:59:31;;;;;;;2.85;2.03;;;21.70;99.90;;;;;;4805662;29;20074;-84
2022/05/04 10:02:00;;;;;;;2.97;2.40;;;21.80;99.90;;;;;;4776068;30;20035;-85
2022/05/04 10:04:28;;;;;;;4.47;2.33;;;21.70;99.90;;;;;;4790601;30;20443;-84
2022/05/04 10:06:55;;;;;;;2.80;2.60;;;22.40;99.90;;;;;;4805531;29;20046;-85
2022/05/04 10:09:23;;;;;;;2.75;2.55;;;23.20;99.90;;;;;;4805687;29;20039;-85
2022/05/04 10:11:59;;;;;;;3.15;2.65;;;22.60;99.90;;;;;;4805591;29;20367;-85
2022/05/04 10:14:29;;;;;;;3.35;2.50;;;22.80;99.90;;;;;;4775838;30;20035;-84
2022/05/04 10:17:11;;;;;;;4.15;2.60;;;22.50;99.90;;;;;;4805383;29;20059;-85
2022/05/04 10:19:44;;;;;;;3.20;2.58;;;22.20;99.90;;;;;;4790606;30;20046;-85
2022/05/04 10:22:29;;;;;;;2.90;2.70;;;21.40;99.90;;;;;;4775618;30;20490;-84
2022/05/04 10:25:00;;;;;;;3.70;2.97;;;20.50;99.90;;;;;;4775600;30;20107;-84
2022/05/04 10:27:28;;;;;;;2.50;2.30;;;20.30;99.90;;;;;;4805147;29;20035;-84
2022/05/04 10:32:52;;;;;;;3.03;2.83;;;20.10;99.90;;;;;;4775201;30;20032;-85
2022/05/04 10:35:41;;;;;;;4.43;2.80;;;20.60;99.90;;;;;;4805253;29;20031;-85
2022/05/04 10:38:15;;;;;;;3.00;2.58;;;20.90;99.90;;;;;;4805522;29;20490;-85
2022/05/04 10:40:47;;;;;;;3.17;2.38;;;20.80;99.90;;;;;;4760581;30;20563;-84
2022/05/04 10:43:17;;;;;;;3.80;2.70;;;20.80;99.90;;;;;;4805314;29;20118;-85
2022/05/04 10:45:49;;;;;;;2.95;2.58;;;21.20;99.90;;;;;;4805247;29;20108;-85
2022/05/04 10:48:18;;;;;;;3.17;2.75;;;21.90;99.90;;;;;;4805231;29;20035;-85
2022/05/04 10:51:09;;;;;;;2.70;2.38;;;22.20;99.90;;;;;;4775080;30;20084;-84
2022/05/04 10:53:40;;;;;;;2.80;2.47;;;22.50;99.90;;;;;;4804919;29;20130;-84
2022/05/04 10:56:09;;;;;;;3.15;2.60;;;22.70;99.90;;;;;;4804937;29;20131;-84
2022/05/04 10:58:43;;;;;;;2.50;2.30;;;22.70;99.90;;;;;;4774968;30;20031;-84
2022/05/04 11:01:17;;;;;;;2.58;2.30;;;22.60;99.90;;;;;;4773958;30;20126;-84
2022/05/04 11:04:11;;;;;;;3.00;2.47;;;22.50;99.90;;;;;;4789869;30;20043;-85
2022/05/04 11:06:40;;;;;;;2.92;2.40;;;22.10;99.90;;;;;;4774722;30;20047;-84
2022/05/04 11:09:11;;;;;;;3.03;2.80;;;21.80;99.90;;;;;;4774758;30;20418;-85
2022/05/04 11:11:45;;;;;;;3.63;2.50;;;21.70;99.90;;;;;;4790016;30;20043;-84
2022/05/04 11:14:14;;;;;;;3.08;2.45;;;21.40;99.90;;;;;;4804933;29;20027;-84
2022/05/04 11:16:42;;;;;;;4.85;2.53;;;21.00;99.90;;;;;;4804551;29;20120;-84
2022/05/04 11:19:11;;;;;;;3.45;2.80;;;20.80;99.90;;;;;;4774968;30;20035;-85
2022/05/04 11:21:39;;;;;;;2.90;2.70;;;20.80;99.90;;;;;;4804586;29;20121;-84
2022/05/04 11:24:07;;;;;;;2.88;2.65;;;20.80;99.90;;;;;;4804385;29;20027;-84
2022/05/04 11:26:45;;;;;;;2.90;2.67;;;20.80;99.90;;;;;;4774665;30;20573;-84
2022/05/04 11:29:15;;;;;;;3.35;2.55;;;20.80;99.90;;;;;;4789415;30;20035;-84
2022/05/04 11:31:46;;;;;;;5.10;3.20;;;20.90;99.90;;;;;;4804204;29;20043;-84
2022/05/04 11:34:17;;;;;;;3.00;2.70;;;20.90;99.90;;;;;;4804363;29;20031;-84
2022/05/04 11:36:46;;;;;;;3.47;2.88;;;20.40;99.90;;;;;;4804225;29;20077;-84
2022/05/04 11:39:22;;;;;;;3.97;3.13;;;20.60;99.90;;;;;;4804240;29;20485;-84
2022/05/04 11:41:56;;;;;;;3.78;2.70;;;21.50;99.90;;;;;;4803861;29;20147;-84
2022/05/04 11:44:24;;;;;;;2.95;2.65;;;22.10;99.90;;;;;;4804144;29;20383;-84
2022/05/04 11:47:00;;;;;;;3.72;2.83;;;21.90;99.90;;;;;;4803778;29;20109;-82
2022/05/04 11:49:29;;;;;;;4.35;2.78;;;21.50;99.90;;;;;;4803711;29;20040;-84
2022/05/04 11:51:58;;;;;;;3.13;2.78;;;21.80;99.90;;;;;;4759381;30;20505;-85
2022/05/04 11:54:25;;;;;;;2.60;2.40;;;21.90;99.90;;;;;;4804075;29;20559;-86
2022/05/04 11:56:52;;;;;;;3.08;2.63;;;22.10;99.90;;;;;;4804114;29;20035;-86
2022/05/04 11:59:19;;;;;;;4.07;3.08;;;21.90;99.90;;;;;;4804042;29;20038;-86
2022/05/04 12:01:47;;;;;;;3.65;2.95;;;21.00;99.90;;;;;;4804398;29;20038;-85
2022/05/04 12:04:15;;;;;;;6.05;3.00;;;20.60;99.90;;;;;;4804472;29;20031;-85
2022/05/04 12:06:43;;;;;;;4.28;2.83;;;20.70;99.90;;;;;;4773954;30;20047;-85
2022/05/04 12:09:12;;;;;;;3.92;2.83;;;20.60;99.90;;;;;;4804143;29;20039;-84
2022/05/04 12:11:40;;;;;;;3.05;2.80;;;20.90;99.90;;;;;;4774622;30;20024;-87
2022/05/04 12:14:09;;;;;;;3.13;2.58;;;20.90;99.90;;;;;;4805519;29;20134;-89
2022/05/04 12:16:38;;;;;;;2.92;2.50;;;20.70;99.90;;;;;;4805211;29;20475;-88
2022/05/04 12:19:08;;;;;;;3.38;2.78;;;20.90;99.90;;;;;;4804904;29;20070;-87
2022/05/04 12:21:35;;;;;;;3.45;2.72;;;20.80;99.90;;;;;;4804180;29;20482;-88
2022/05/04 12:24:02;;;;;;;3.25;2.85;;;20.70;99.90;;;;;;4773885;30;20100;-87
2022/05/04 12:26:30;;;;;;;3.28;2.97;;;20.70;99.90;;;;;;4803513;29;20050;-88
2022/05/04 12:34:31;;;;;;;3.67;3.25;;;21.10;99.90;;;;;;4774350;30;20092;-86
2022/05/04 12:37:01;;;;;;;2.75;2.55;;;21.10;99.90;;;;;;4803282;29;20043;-87
2022/05/04 12:39:30;;;;;;;4.78;2.65;;;21.30;99.90;;;;;;4803471;29;20046;-87
2022/05/04 12:41:57;;;;;;;8.05;2.83;;;21.50;99.90;;;;;;4803259;29;20042;-87
2022/05/04 12:44:25;;;;;;;3.33;3.03;;;21.60;99.90;;;;;;4803277;29;20035;-85
2022/05/04 12:46:57;;;;;;;4.20;2.70;;;21.90;99.90;;;;;;4773354;30;20039;-86
2022/05/04 12:49:25;;;;;;;3.38;2.60;;;22.00;99.90;;;;;;4803002;29;20035;-89
2022/05/04 12:51:54;;;;;;;3.35;2.60;;;22.00;99.90;;;;;;4773280;30;20036;-87
2022/05/04 12:54:22;;;;;;;2.50;2.30;;;21.90;99.90;;;;;;4803183;29;20032;-87
2022/05/04 12:56:48;;;;;;;2.75;2.47;;;21.70;99.90;;;;;;4803464;29;20486;-89
2022/05/04 12:59:17;;;;;;;2.47;2.28;;;21.70;99.90;;;;;;4802999;29;20084;-88
2022/05/04 13:01:44;;;;;;;3.85;2.53;;;21.50;99.90;;;;;;4773192;30;20054;-87
2022/05/04 13:04:13;;;;;;;3.22;2.50;;;21.40;99.90;;;;;;4773337;30;20045;-88
2022/05/04 13:06:40;;;;;;;2.50;2.30;;;21.60;99.90;;;;;;4772943;30;20067;-88
2022/05/04 13:09:07;;;;;;;5.05;2.60;;;21.70;99.90;;;;;;4803023;29;20075;-89
2022/05/04 13:11:34;;;;;;;3.08;2.78;;;21.60;99.90;;;;;;4772944;30;20461;-88
2022/05/04 13:14:02;;;;;;;2.65;2.40;;;21.70;99.90;;;;;;4773174;30;20115;-87
2022/05/04 13:16:33;;;;;;;2.60;2.10;;;21.40;99.90;;;;;;4772801;30;20043;-88
2022/05/04 13:19:00;;;;;;;2.35;2.15;;;21.30;99.90;;;;;;4802809;29;20040;-87
2022/05/04 13:21:28;;;;;;;4.60;2.80;;;21.10;99.90;;;;;;4802729;29;20039;-87
2022/05/04 13:23:56;;;;;;;3.00;2.70;;;21.10;99.90;;;;;;4804564;29;20061;-87